Time;durP1;ratioP1;P1;durP2;ratioP2;P2;SDS_P1;SDS_P2;PMS_P1;PMS_P2;Temp;Humidity;BMP_temperature;BMP_pressure;BME280_temperature;BME280_humidity;BME280_pressure;Samples;Min_cycle;Max_cycle;Signal;HPM_P1;HPM_P2
2023/01/14 00:00:14;;;;;;;1.10;1.03;;;9.40;99.90;;;;;;4986578;28;20576;-67
2023/01/14 00:02:40;;;;;;;0.90;0.90;;;9.40;99.90;;;;;;4986762;28;20241;-67
2023/01/14 00:05:08;;;;;;;1.30;1.00;;;9.40;99.90;;;;;;4990952;28;20202;-67
2023/01/14 00:07:35;;;;;;;1.43;1.33;;;9.40;99.90;;;;;;4995438;28;20226;-67
2023/01/14 00:10:02;;;;;;;0.90;0.90;;;9.50;99.90;;;;;;4992874;28;20202;-68
2023/01/14 00:12:30;;;;;;;1.00;1.00;;;9.50;99.90;;;;;;4988322;28;20296;-67
2023/01/14 00:14:57;;;;;;;0.90;0.90;;;9.60;99.90;;;;;;4993427;28;20221;-72
2023/01/14 00:17:24;;;;;;;0.83;0.83;;;9.50;99.90;;;;;;5003952;28;20245;-68
2023/01/14 00:19:50;;;;;;;1.40;1.30;;;9.60;99.90;;;;;;5000093;28;20237;-66
2023/01/14 00:22:17;;;;;;;1.10;1.00;;;9.60;99.90;;;;;;5001609;28;20229;-68
2023/01/14 00:24:44;;;;;;;1.17;1.07;;;9.50;99.90;;;;;;5001767;28;20586;-65
2023/01/14 00:27:12;;;;;;;1.33;1.15;;;9.50;99.90;;;;;;5002443;28;20218;-68
2023/01/14 00:29:40;;;;;;;1.07;0.93;;;9.50;99.90;;;;;;4998897;28;20198;-66
2023/01/14 00:32:07;;;;;;;1.07;1.07;;;9.50;99.90;;;;;;5000897;28;20206;-67
2023/01/14 00:34:36;;;;;;;1.17;1.07;;;9.40;99.90;;;;;;5005278;28;20673;-67
2023/01/14 00:37:03;;;;;;;4.23;1.20;;;9.50;99.90;;;;;;5000940;28;20945;-68
2023/01/14 00:39:30;;;;;;;1.00;1.00;;;9.50;99.90;;;;;;5002066;28;20203;-68
2023/01/14 00:41:57;;;;;;;1.00;1.00;;;9.50;99.90;;;;;;5001481;28;20244;-65
2023/01/14 00:44:24;;;;;;;0.95;0.95;;;9.50;99.90;;;;;;4998073;28;20216;-67
2023/01/14 00:46:53;;;;;;;1.10;1.10;;;9.60;99.90;;;;;;4996581;28;20813;-68
2023/01/14 00:49:22;;;;;;;0.90;0.90;;;9.60;99.90;;;;;;4992112;28;20317;-67
2023/01/14 00:51:49;;;;;;;2.05;1.10;;;9.60;99.90;;;;;;4989545;28;20309;-67
2023/01/14 00:54:16;;;;;;;0.97;0.97;;;9.60;99.90;;;;;;4990831;28;20224;-66
2023/01/14 00:56:43;;;;;;;1.13;1.07;;;9.60;99.90;;;;;;4991131;28;20226;-65
2023/01/14 00:59:17;;;;;;;1.33;1.23;;;9.60;99.90;;;;;;4991551;28;20205;-66
2023/01/14 01:01:44;;;;;;;1.00;1.00;;;9.60;99.90;;;;;;4986881;28;20230;-67
2023/01/14 01:04:12;;;;;;;1.00;1.00;;;9.50;99.90;;;;;;4990251;28;20202;-67
2023/01/14 01:06:39;;;;;;;0.80;0.80;;;9.50;99.90;;;;;;4989879;28;20230;-66
2023/01/14 01:09:06;;;;;;;0.95;0.95;;;9.50;99.90;;;;;;4989796;28;20745;-68
2023/01/14 01:11:33;;;;;;;1.30;1.20;;;9.50;99.90;;;;;;4988954;28;20281;-66
2023/01/14 01:14:00;;;;;;;1.10;1.10;;;9.50;99.90;;;;;;4989517;28;20220;-66
2023/01/14 01:16:27;;;;;;;1.30;1.13;;;9.50;99.90;;;;;;4987276;28;20287;-66
2023/01/14 01:18:56;;;;;;;0.80;0.80;;;9.50;99.90;;;;;;4998059;28;20214;-66
2023/01/14 01:21:25;;;;;;;1.03;1.03;;;9.50;99.90;;;;;;4989047;28;20624;-67
2023/01/14 01:23:52;;;;;;;1.17;1.08;;;9.50;99.90;;;;;;5018903;28;20698;-67
2023/01/14 01:26:21;;;;;;;1.17;1.00;;;9.50;99.90;;;;;;4988928;28;20581;-68
2023/01/14 01:28:49;;;;;;;1.15;1.15;;;9.50;99.90;;;;;;4989446;28;20217;-68
2023/01/14 01:31:16;;;;;;;0.73;0.73;;;9.50;99.90;;;;;;4994129;28;20217;-65
2023/01/14 01:33:43;;;;;;;1.13;1.10;;;9.40;99.90;;;;;;5011206;28;20301;-68
2023/01/14 01:36:13;;;;;;;1.23;1.13;;;9.30;99.90;;;;;;4993679;28;20705;-65
2023/01/14 01:38:42;;;;;;;0.98;0.88;;;9.20;99.90;;;;;;4994899;28;20266;-67
2023/01/14 01:41:13;;;;;;;1.00;1.00;;;9.10;99.90;;;;;;4999312;28;20237;-67
2023/01/14 01:44:07;;;;;;;0.80;0.80;;;9.00;99.90;;;;;;4998935;28;20198;-66
2023/01/14 01:46:44;;;;;;;1.77;0.93;;;8.90;99.90;;;;;;4987208;28;20218;-65
2023/01/14 01:49:16;;;;;;;0.90;0.90;;;8.90;99.90;;;;;;4999193;28;20201;-66
2023/01/14 01:51:48;;;;;;;1.00;0.90;;;8.80;99.90;;;;;;4992537;28;20680;-65
2023/01/14 01:54:17;;;;;;;0.80;0.80;;;8.70;99.90;;;;;;4989048;28;20690;-66
2023/01/14 01:56:46;;;;;;;1.40;1.10;;;8.50;99.90;;;;;;4989316;28;20226;-66
2023/01/14 01:59:17;;;;;;;0.93;0.90;;;8.60;99.90;;;;;;4989054;28;20237;-68
2023/01/14 02:01:44;;;;;;;1.07;1.07;;;8.50;99.90;;;;;;4988873;28;20593;-67
2023/01/14 02:04:12;;;;;;;1.00;1.00;;;8.60;99.90;;;;;;4989524;28;20685;-66
2023/01/14 02:06:39;;;;;;;0.90;0.90;;;8.50;99.90;;;;;;4988367;28;20224;-66
2023/01/14 02:09:07;;;;;;;1.10;1.00;;;8.50;99.90;;;;;;5018274;28;20238;-67
2023/01/14 02:12:03;;;;;;;1.30;1.20;;;8.40;99.90;;;;;;4991408;28;20194;-68
2023/01/14 02:14:55;;;;;;;1.07;1.00;;;8.40;99.90;;;;;;4996016;28;20293;-66
2023/01/14 02:17:30;;;;;;;1.23;1.13;;;8.30;99.90;;;;;;4992892;28;20236;-68
2023/01/14 02:20:14;;;;;;;1.17;1.08;;;8.20;99.90;;;;;;5001393;28;20209;-68
2023/01/14 02:23:02;;;;;;;1.70;1.10;;;8.20;99.90;;;;;;4990169;28;20238;-66
2023/01/14 02:25:46;;;;;;;1.10;1.10;;;8.20;99.90;;;;;;4985814;28;20217;-66
2023/01/14 02:28:24;;;;;;;1.50;1.20;;;8.10;99.90;;;;;;4992362;28;20290;-68
2023/01/14 02:30:59;;;;;;;1.13;1.13;;;8.10;99.90;;;;;;4991431;28;20209;-66
2023/01/14 02:33:36;;;;;;;1.37;1.27;;;8.00;99.90;;;;;;4986240;28;20260;-66
2023/01/14 02:36:10;;;;;;;1.53;1.20;;;7.90;99.90;;;;;;4988834;28;20210;-68
2023/01/14 02:38:45;;;;;;;0.90;0.90;;;7.90;99.90;;;;;;4984613;28;20205;-66
2023/01/14 02:41:19;;;;;;;1.20;1.10;;;7.90;99.90;;;;;;4983600;28;20244;-65
2023/01/14 02:44:10;;;;;;;1.17;1.07;;;8.00;99.90;;;;;;4988410;28;20291;-67
2023/01/14 02:46:42;;;;;;;1.10;1.00;;;8.00;99.90;;;;;;4999037;28;20252;-66
2023/01/14 02:49:14;;;;;;;1.00;1.00;;;8.00;99.90;;;;;;4982082;28;20202;-65
2023/01/14 02:51:41;;;;;;;1.30;1.20;;;8.00;99.90;;;;;;4986999;28;20194;-66
2023/01/14 02:54:08;;;;;;;1.13;1.00;;;8.00;99.90;;;;;;4989214;28;20213;-67
2023/01/14 02:56:35;;;;;;;0.93;0.93;;;8.00;99.90;;;;;;4990157;28;20226;-66
2023/01/14 02:59:23;;;;;;;1.10;1.10;;;8.00;99.90;;;;;;4990470;28;20212;-66
2023/01/14 03:02:14;;;;;;;0.87;0.87;;;8.00;99.90;;;;;;4988386;28;20312;-66
2023/01/14 03:04:54;;;;;;;1.00;0.90;;;8.00;99.90;;;;;;4995962;28;20305;-65
2023/01/14 03:07:29;;;;;;;1.13;1.10;;;8.00;99.90;;;;;;4988460;28;20304;-67
2023/01/14 03:10:03;;;;;;;1.00;1.00;;;7.90;99.90;;;;;;4987917;28;20666;-66
2023/01/14 03:12:37;;;;;;;0.93;0.93;;;7.80;99.90;;;;;;4982856;28;20205;-68
2023/01/14 03:15:14;;;;;;;1.05;0.90;;;7.90;99.90;;;;;;4988077;28;20587;-66
2023/01/14 03:17:46;;;;;;;1.00;1.00;;;7.80;99.90;;;;;;4985001;28;20222;-67
2023/01/14 03:20:18;;;;;;;1.17;1.07;;;7.80;99.90;;;;;;4981500;28;20202;-68
2023/01/14 03:22:47;;;;;;;1.37;1.20;;;7.80;99.90;;;;;;4987513;28;20277;-67
2023/01/14 03:25:17;;;;;;;1.10;1.10;;;7.90;99.90;;;;;;4987482;28;20245;-68
2023/01/14 03:27:46;;;;;;;1.17;1.07;;;7.90;99.90;;;;;;4991224;28;20744;-67
2023/01/14 03:30:18;;;;;;;1.27;1.17;;;7.90;99.90;;;;;;4999679;28;20297;-67
2023/01/14 03:32:50;;;;;;;1.30;1.00;;;7.90;99.90;;;;;;4987381;28;20662;-66
2023/01/14 03:35:21;;;;;;;0.67;0.67;;;8.00;99.90;;;;;;4987393;28;20623;-67
2023/01/14 03:37:52;;;;;;;1.07;1.00;;;8.00;99.90;;;;;;4987517;28;20257;-68
2023/01/14 03:40:21;;;;;;;1.00;1.00;;;7.90;99.90;;;;;;4989049;28;20216;-68
2023/01/14 03:42:53;;;;;;;1.07;1.00;;;7.90;99.90;;;;;;4989397;28;20305;-66
2023/01/14 03:45:25;;;;;;;1.20;1.00;;;7.90;99.90;;;;;;4985833;28;20210;-66
2023/01/14 03:47:53;;;;;;;1.10;1.00;;;7.90;99.90;;;;;;4991860;28;20222;-66
2023/01/14 03:50:23;;;;;;;0.95;0.93;;;8.00;99.90;;;;;;4991589;28;20208;-68
2023/01/14 03:53:00;;;;;;;1.03;1.00;;;8.00;99.90;;;;;;5025819;28;20276;-67
2023/01/14 03:55:31;;;;;;;1.17;1.13;;;8.00;99.90;;;;;;4991096;28;20673;-67
2023/01/14 03:58:09;;;;;;;1.10;1.00;;;8.00;99.90;;;;;;4991679;28;20236;-67
2023/01/14 04:00:40;;;;;;;1.43;1.30;;;7.90;99.90;;;;;;4987113;28;20669;-67
2023/01/14 04:03:11;;;;;;;0.80;0.80;;;7.90;99.90;;;;;;4984590;28;20218;-68
2023/01/14 04:05:38;;;;;;;0.90;0.90;;;7.80;99.90;;;;;;4997413;28;20233;-67
2023/01/14 04:08:07;;;;;;;1.10;1.10;;;7.90;99.90;;;;;;5040072;28;20229;-68
2023/01/14 04:10:33;;;;;;;1.73;1.00;;;7.70;99.90;;;;;;5006862;28;20202;-68
2023/01/14 04:15:45;;;;;;;0.83;0.83;;;7.70;99.90;;;;;;5040832;28;20267;-67
2023/01/14 04:18:13;;;;;;;1.30;1.10;;;7.60;99.90;;;;;;5022503;28;20250;-67
2023/01/14 04:20:40;;;;;;;1.27;1.17;;;7.80;99.90;;;;;;5006045;28;20293;-66
2023/01/14 04:23:07;;;;;;;1.00;1.00;;;7.60;99.90;;;;;;4999062;28;20224;-68
2023/01/14 04:25:33;;;;;;;1.67;1.27;;;7.60;99.90;;;;;;4991348;28;20210;-67
2023/01/14 04:28:00;;;;;;;0.70;0.70;;;7.60;99.90;;;;;;4992821;28;21028;-66
2023/01/14 04:30:27;;;;;;;1.40;1.30;;;7.60;99.90;;;;;;4991851;28;20244;-67
2023/01/14 04:32:54;;;;;;;1.33;1.23;;;7.50;99.90;;;;;;4993957;28;20198;-67
2023/01/14 04:35:22;;;;;;;1.47;1.20;;;7.60;99.90;;;;;;4998959;28;20301;-67
2023/01/14 04:37:50;;;;;;;1.50;1.40;;;7.60;99.90;;;;;;5026446;28;20236;-66
2023/01/14 04:40:18;;;;;;;1.20;1.20;;;7.70;99.90;;;;;;5002912;28;20202;-68
2023/01/14 04:42:44;;;;;;;1.50;1.40;;;7.70;99.90;;;;;;5009230;28;20233;-66
2023/01/14 04:45:11;;;;;;;1.80;1.40;;;7.60;99.90;;;;;;5005344;28;20216;-67
2023/01/14 04:47:39;;;;;;;2.03;1.50;;;7.70;99.90;;;;;;5005153;28;20229;-68
2023/01/14 04:52:48;;;;;;;1.60;1.50;;;7.70;99.90;;;;;;5002095;28;20198;-67
2023/01/14 04:55:15;;;;;;;1.87;1.27;;;7.80;99.90;;;;;;4992317;28;20552;-68
2023/01/14 04:57:42;;;;;;;1.50;1.40;;;7.80;99.90;;;;;;4992623;28;20320;-66
2023/01/14 05:00:10;;;;;;;1.43;1.20;;;7.80;99.90;;;;;;4988978;28;20210;-68
2023/01/14 05:02:37;;;;;;;1.70;1.40;;;7.80;99.90;;;;;;4993247;28;20661;-67
2023/01/14 05:05:04;;;;;;;1.40;1.30;;;7.80;99.90;;;;;;4990987;28;20680;-66
2023/01/14 05:07:31;;;;;;;1.37;1.20;;;7.80;99.90;;;;;;4998586;28;20229;-69
2023/01/14 05:09:59;;;;;;;1.20;1.10;;;7.80;99.90;;;;;;5004461;28;20286;-69
2023/01/14 05:12:26;;;;;;;1.23;1.13;;;7.80;99.90;;;;;;4995228;28;20198;-68
2023/01/14 05:14:53;;;;;;;1.53;1.43;;;7.80;99.90;;;;;;4992033;28;20214;-68
2023/01/14 05:17:20;;;;;;;1.37;1.27;;;7.80;99.90;;;;;;5011064;28;20219;-66
2023/01/14 05:19:46;;;;;;;1.50;1.40;;;7.80;99.90;;;;;;5004828;28;20662;-66
2023/01/14 05:22:13;;;;;;;1.60;1.50;;;7.90;99.90;;;;;;4989874;28;20686;-67
2023/01/14 05:24:41;;;;;;;1.60;1.50;;;7.90;99.90;;;;;;4991813;28;20290;-67
2023/01/14 05:27:10;;;;;;;1.70;1.60;;;7.90;99.90;;;;;;4985889;28;20289;-66
2023/01/14 05:29:38;;;;;;;1.93;1.57;;;8.00;99.90;;;;;;4997451;28;20206;-66
2023/01/14 05:32:05;;;;;;;1.37;1.27;;;8.00;99.90;;;;;;4998950;28;20894;-65
2023/01/14 05:34:32;;;;;;;1.67;1.20;;;8.10;99.90;;;;;;4996533;28;20206;-65
2023/01/14 05:36:59;;;;;;;1.30;1.20;;;8.20;99.90;;;;;;5004477;28;20293;-68
2023/01/14 05:39:25;;;;;;;1.30;1.20;;;8.20;99.90;;;;;;5020905;28;20206;-65
2023/01/14 05:47:22;;;;;;;1.27;1.17;;;8.30;99.90;;;;;;4983784;28;20705;-67
2023/01/14 05:49:49;;;;;;;1.50;1.40;;;8.30;99.90;;;;;;4991126;28;20206;-68
2023/01/14 05:52:16;;;;;;;1.40;1.20;;;8.40;99.90;;;;;;4994806;28;20558;-66
2023/01/14 05:54:43;;;;;;;1.53;1.43;;;8.50;99.90;;;;;;5015801;28;20213;-65
2023/01/14 05:57:14;;;;;;;1.33;1.23;;;8.40;99.90;;;;;;4992102;28;20228;-68
2023/01/14 05:59:43;;;;;;;1.30;1.20;;;8.50;99.90;;;;;;4991363;28;20209;-67
2023/01/14 06:07:50;;;;;;;1.73;1.40;;;8.60;99.90;;;;;;4984847;28;20587;-67
2023/01/14 06:10:17;;;;;;;1.50;1.40;;;8.60;99.90;;;;;;4989096;28;20742;-67
2023/01/14 06:15:39;;;;;;;1.77;1.57;;;8.70;99.90;;;;;;5095525;28;21227;-66
2023/01/14 06:18:15;;;;;;;1.70;1.53;;;8.80;99.90;;;;;;5087400;28;20215;-65
2023/01/14 06:20:43;;;;;;;1.40;1.30;;;8.80;99.90;;;;;;5082591;28;20206;-67
2023/01/14 06:23:13;;;;;;;1.15;1.10;;;8.80;99.90;;;;;;5072119;28;20221;-66
2023/01/14 06:25:40;;;;;;;1.50;1.23;;;8.80;99.90;;;;;;5087264;28;20264;-67
2023/01/14 06:28:06;;;;;;;1.23;1.13;;;8.80;99.90;;;;;;5087917;28;21012;-65
2023/01/14 06:30:33;;;;;;;1.17;1.17;;;8.80;99.90;;;;;;5084015;28;20207;-67
2023/01/14 06:33:01;;;;;;;1.30;1.20;;;8.90;99.90;;;;;;5087407;28;20686;-67
2023/01/14 06:35:28;;;;;;;1.10;1.10;;;8.90;99.90;;;;;;5084262;28;20222;-66
2023/01/14 06:37:55;;;;;;;1.60;1.50;;;9.00;99.90;;;;;;5084500;28;20234;-65
2023/01/14 06:40:22;;;;;;;1.77;1.20;;;9.10;99.90;;;;;;5087903;28;20676;-68
2023/01/14 06:42:52;;;;;;;1.00;1.00;;;9.10;99.90;;;;;;5082701;28;20203;-67
2023/01/14 06:45:19;;;;;;;1.63;1.37;;;9.10;99.90;;;;;;5074526;28;20199;-68
2023/01/14 06:47:47;;;;;;;1.07;1.07;;;9.10;99.90;;;;;;5082741;28;20218;-66
2023/01/14 06:50:17;;;;;;;0.90;0.90;;;9.10;99.90;;;;;;5094718;28;20262;-67
2023/01/14 06:52:44;;;;;;;1.20;1.10;;;9.10;99.90;;;;;;5096131;28;20252;-66
2023/01/14 06:55:11;;;;;;;1.23;1.20;;;9.30;99.90;;;;;;5084445;28;20306;-67
2023/01/14 06:57:38;;;;;;;1.53;1.10;;;9.10;99.90;;;;;;5088415;28;20219;-67
2023/01/14 07:00:05;;;;;;;1.00;1.00;;;9.10;99.90;;;;;;5081887;28;20203;-67
2023/01/14 07:02:33;;;;;;;1.20;1.20;;;9.10;99.90;;;;;;5087286;28;20666;-67
2023/01/14 07:05:00;;;;;;;1.00;1.00;;;9.10;99.90;;;;;;5080488;28;20209;-67
2023/01/14 07:07:28;;;;;;;0.87;0.83;;;9.10;99.90;;;;;;5086627;28;20321;-68
2023/01/14 07:09:55;;;;;;;1.20;1.10;;;9.20;99.90;;;;;;5079366;28;20199;-69
2023/01/14 07:12:22;;;;;;;1.00;1.00;;;9.30;99.90;;;;;;5085056;28;20666;-67
2023/01/14 07:14:49;;;;;;;1.10;1.10;;;9.20;99.90;;;;;;5085736;28;20933;-68
2023/01/14 07:17:16;;;;;;;0.80;0.80;;;9.20;99.90;;;;;;5082985;28;20219;-69
2023/01/14 07:19:43;;;;;;;0.90;0.90;;;9.20;99.90;;;;;;5086756;28;20203;-67
2023/01/14 07:22:09;;;;;;;1.00;1.00;;;9.20;99.90;;;;;;5075994;28;20203;-67
2023/01/14 07:24:38;;;;;;;0.70;0.70;;;9.30;99.90;;;;;;5086856;28;20195;-65
2023/01/14 07:27:05;;;;;;;1.40;1.30;;;9.30;99.90;;;;;;5073262;28;20588;-66
2023/01/14 07:29:31;;;;;;;1.07;1.07;;;9.30;99.90;;;;;;5068676;28;20200;-68
2023/01/14 07:31:58;;;;;;;0.87;0.87;;;9.40;99.90;;;;;;5056446;28;20576;-66
2023/01/14 07:34:25;;;;;;;1.33;0.90;;;9.40;99.90;;;;;;5064017;28;20223;-66
2023/01/14 07:36:52;;;;;;;0.70;0.70;;;9.50;99.90;;;;;;5063768;28;20242;-65
2023/01/14 07:39:19;;;;;;;1.10;1.00;;;9.50;99.90;;;;;;5069708;28;20210;-67
2023/01/14 07:41:47;;;;;;;0.73;0.73;;;9.60;99.90;;;;;;5071377;28;20195;-67
2023/01/14 07:44:14;;;;;;;1.10;1.00;;;9.60;99.90;;;;;;5072404;28;20286;-66
2023/01/14 07:46:41;;;;;;;0.90;0.90;;;9.60;99.90;;;;;;5069232;28;20586;-66
2023/01/14 07:49:08;;;;;;;0.90;0.90;;;9.70;99.90;;;;;;5071879;28;20210;-66
2023/01/14 07:51:35;;;;;;;0.67;0.67;;;9.80;99.90;;;;;;5068296;28;20211;-65
2023/01/14 07:54:01;;;;;;;1.07;0.97;;;9.80;99.90;;;;;;5069198;28;20701;-64
2023/01/14 07:56:28;;;;;;;0.80;0.80;;;9.80;99.90;;;;;;5076069;28;20203;-67
2023/01/14 07:58:56;;;;;;;0.87;0.87;;;9.80;99.90;;;;;;5058884;28;20964;-67
2023/01/14 08:01:23;;;;;;;0.90;0.90;;;9.90;99.90;;;;;;5067544;28;20206;-67
2023/01/14 08:03:50;;;;;;;0.93;0.93;;;9.90;99.90;;;;;;5069244;28;20291;-67
2023/01/14 08:06:17;;;;;;;0.80;0.80;;;9.90;99.90;;;;;;5070807;28;20856;-65
2023/01/14 08:08:44;;;;;;;0.83;0.83;;;9.90;99.90;;;;;;5068486;28;20651;-67
2023/01/14 08:11:11;;;;;;;0.70;0.70;;;10.00;99.90;;;;;;5077434;28;20275;-65
2023/01/14 08:13:37;;;;;;;0.60;0.60;;;10.00;99.90;;;;;;5085996;28;20278;-68
2023/01/14 08:16:07;;;;;;;0.90;0.90;;;10.00;99.90;;;;;;5086705;28;20234;-66
2023/01/14 08:18:35;;;;;;;0.70;0.70;;;10.10;99.90;;;;;;5090002;28;20230;-67
2023/01/14 08:21:04;;;;;;;0.80;0.80;;;10.10;99.90;;;;;;5084955;28;20195;-67
2023/01/14 08:23:31;;;;;;;0.70;0.70;;;10.10;99.90;;;;;;5075976;28;20268;-69
2023/01/14 08:26:00;;;;;;;0.80;0.80;;;10.10;99.90;;;;;;5090840;28;20269;-67
2023/01/14 08:28:27;;;;;;;0.60;0.60;;;10.10;99.90;;;;;;5086280;28;20234;-67
2023/01/14 08:31:01;;;;;;;0.67;0.67;;;10.10;99.90;;;;;;5085115;28;20298;-68
2023/01/14 08:33:29;;;;;;;0.70;0.70;;;10.20;99.90;;;;;;5073957;28;20234;-67
2023/01/14 08:35:56;;;;;;;0.83;0.83;;;10.20;99.90;;;;;;5076488;28;20280;-67
2023/01/14 08:38:23;;;;;;;0.70;0.70;;;10.30;99.90;;;;;;5051509;28;20233;-67
2023/01/14 08:40:51;;;;;;;0.70;0.70;;;10.30;99.90;;;;;;5061903;28;20648;-68
2023/01/14 08:43:19;;;;;;;0.80;0.80;;;10.40;99.90;;;;;;5049701;28;20216;-67
2023/01/14 08:45:46;;;;;;;0.60;0.60;;;10.40;99.90;;;;;;5045271;28;20287;-65
2023/01/14 08:48:12;;;;;;;0.80;0.80;;;10.50;99.90;;;;;;5047724;28;20243;-68
2023/01/14 08:50:40;;;;;;;0.65;0.65;;;10.60;99.90;;;;;;5045429;28;20662;-65
2023/01/14 08:53:07;;;;;;;0.77;0.77;;;10.60;99.90;;;;;;5049207;28;20200;-66
2023/01/14 08:55:34;;;;;;;0.70;0.70;;;10.70;99.90;;;;;;5045239;28;20699;-68
2023/01/14 08:58:01;;;;;;;0.70;0.70;;;10.80;99.90;;;;;;5050951;28;20220;-66
2023/01/14 09:00:28;;;;;;;1.50;0.87;;;11.00;99.90;;;;;;5053695;28;20234;-67
2023/01/14 09:02:54;;;;;;;0.43;0.43;;;11.10;99.90;;;;;;5051687;28;20780;-66
2023/01/14 09:05:21;;;;;;;0.50;0.50;;;11.20;99.90;;;;;;5048955;28;20204;-66
2023/01/14 09:18:47;;;;;;;0.37;0.37;;;11.40;99.90;;;;;;5043659;28;20223;-67
2023/01/14 09:21:14;;;;;;;0.47;0.47;;;11.40;99.90;;;;;;5052197;28;20242;-67
2023/01/14 09:23:43;;;;;;;0.80;0.80;;;11.40;99.90;;;;;;5058675;28;20283;-67
2023/01/14 09:26:09;;;;;;;0.53;0.53;;;11.30;99.90;;;;;;5069471;28;20504;-68
2023/01/14 09:28:36;;;;;;;0.60;0.60;;;11.40;99.90;;;;;;5062883;28;20239;-67
2023/01/14 09:31:03;;;;;;;0.50;0.50;;;11.40;99.90;;;;;;5065433;28;20267;-66
2023/01/14 09:33:30;;;;;;;0.63;0.63;;;11.50;99.90;;;;;;5071594;28;20231;-66
2023/01/14 09:36:00;;;;;;;0.57;0.57;;;11.50;99.90;;;;;;5072861;28;20294;-65
2023/01/14 09:38:28;;;;;;;0.70;0.70;;;11.50;99.90;;;;;;5073473;28;20295;-67
2023/01/14 09:40:56;;;;;;;0.77;0.63;;;11.60;99.90;;;;;;5074110;28;20255;-67
2023/01/14 09:43:31;;;;;;;0.60;0.60;;;11.60;99.90;;;;;;5073960;28;20270;-67
2023/01/14 09:46:00;;;;;;;0.63;0.63;;;11.60;99.90;;;;;;5079846;28;20282;-66
2023/01/14 09:48:30;;;;;;;0.40;0.40;;;11.60;99.90;;;;;;5065249;28;20238;-66
2023/01/14 09:51:07;;;;;;;0.47;0.47;;;11.60;99.90;;;;;;5049467;28;20202;-67
2023/01/14 09:53:54;;;;;;;0.40;0.40;;;11.60;99.90;;;;;;5048626;28;20226;-65
2023/01/14 09:56:26;;;;;;;0.37;0.37;;;11.60;99.90;;;;;;5045062;28;20223;-66
2023/01/14 09:58:58;;;;;;;0.50;0.50;;;11.60;99.90;;;;;;5054593;28;20253;-66
2023/01/14 10:01:31;;;;;;;0.40;0.40;;;11.60;99.90;;;;;;5057640;28;20688;-67
2023/01/14 10:04:07;;;;;;;0.32;0.32;;;11.60;99.90;;;;;;5058823;28;20560;-67
2023/01/14 10:06:35;;;;;;;0.50;0.50;;;11.60;99.90;;;;;;5052734;28;20203;-68
2023/01/14 10:09:06;;;;;;;0.60;0.60;;;11.60;99.90;;;;;;5060811;28;20197;-72
2023/01/14 10:11:38;;;;;;;0.50;0.50;;;11.70;99.90;;;;;;5058116;28;20196;-67
2023/01/14 10:14:13;;;;;;;0.30;0.30;;;11.80;99.90;;;;;;5059766;28;20311;-68
2023/01/14 10:16:42;;;;;;;0.47;0.47;;;11.60;99.90;;;;;;5058511;28;20233;-66
2023/01/14 10:19:16;;;;;;;0.43;0.43;;;11.70;99.90;;;;;;5058985;28;20556;-65
2023/01/14 10:21:46;;;;;;;0.50;0.50;;;11.70;99.90;;;;;;5052725;28;20759;-64
2023/01/14 10:24:14;;;;;;;0.50;0.50;;;11.80;99.90;;;;;;5055925;28;20212;-66
2023/01/14 10:26:45;;;;;;;0.53;0.53;;;11.80;99.90;;;;;;5047530;28;20737;-66
2023/01/14 10:29:15;;;;;;;0.30;0.30;;;11.80;99.90;;;;;;5052809;28;20211;-69
2023/01/14 10:31:47;;;;;;;0.50;0.50;;;11.70;99.90;;;;;;5047593;28;20275;-66
2023/01/14 10:34:17;;;;;;;0.27;0.27;;;11.70;99.90;;;;;;5047037;28;20207;-68
2023/01/14 10:36:44;;;;;;;0.50;0.50;;;11.80;99.90;;;;;;5046602;28;20226;-66
2023/01/14 10:39:13;;;;;;;0.40;0.40;;;11.80;99.90;;;;;;5044725;28;20202;-66
2023/01/14 10:41:50;;;;;;;0.60;0.60;;;11.70;99.90;;;;;;5048941;28;20574;-65
2023/01/14 10:44:23;;;;;;;0.80;0.80;;;11.70;99.90;;;;;;5049101;28;20215;-66
2023/01/14 10:46:52;;;;;;;1.27;1.27;;;11.80;99.90;;;;;;5045842;28;20281;-68
2023/01/14 10:49:24;;;;;;;0.90;0.90;;;11.80;99.90;;;;;;5048705;28;20199;-66
2023/01/14 10:51:51;;;;;;;0.80;0.80;;;11.80;99.90;;;;;;5052850;28;20257;-66
2023/01/14 10:54:21;;;;;;;0.80;0.80;;;11.80;99.90;;;;;;5051524;28;20207;-64
2023/01/14 10:56:51;;;;;;;0.63;0.63;;;11.90;99.90;;;;;;5044570;28;20255;-67
2023/01/14 10:59:33;;;;;;;0.60;0.60;;;11.80;99.90;;;;;;5036784;28;20197;-67
2023/01/14 11:02:00;;;;;;;0.83;0.83;;;11.80;99.90;;;;;;5047060;28;20223;-65
2023/01/14 11:04:29;;;;;;;0.60;0.60;;;11.80;99.90;;;;;;5043247;28;20982;-66
2023/01/14 11:06:56;;;;;;;0.60;0.60;;;11.80;99.90;;;;;;5043932;28;20594;-68
2023/01/14 11:09:28;;;;;;;0.80;0.80;;;11.80;99.90;;;;;;5046346;28;20208;-64
2023/01/14 11:11:57;;;;;;;0.70;0.70;;;11.80;99.90;;;;;;5047259;28;20211;-67
2023/01/14 11:14:29;;;;;;;0.50;0.50;;;11.80;99.90;;;;;;5051168;28;20295;-67
2023/01/14 11:16:56;;;;;;;0.60;0.60;;;11.80;99.90;;;;;;5047646;28;20331;-66
2023/01/14 11:19:24;;;;;;;0.60;0.60;;;11.80;99.90;;;;;;5048128;28;20201;-67
2023/01/14 11:21:53;;;;;;;0.37;0.37;;;11.80;99.90;;;;;;5044095;28;20209;-66
2023/01/14 11:24:29;;;;;;;0.50;0.50;;;11.70;99.90;;;;;;5062157;28;20208;-67
2023/01/14 11:27:05;;;;;;;0.60;0.60;;;11.80;99.90;;;;;;5056982;28;20282;-63
2023/01/14 11:29:35;;;;;;;0.50;0.50;;;11.70;99.90;;;;;;5050122;28;20211;-68
2023/01/14 11:32:07;;;;;;;0.40;0.40;;;11.70;99.90;;;;;;5053444;28;20201;-65
2023/01/14 11:34:36;;;;;;;0.50;0.50;;;11.80;99.90;;;;;;5051799;28;20204;-68
2023/01/14 11:37:06;;;;;;;0.60;0.60;;;11.80;99.90;;;;;;5063316;28;20288;-66
2023/01/14 11:39:34;;;;;;;0.67;0.67;;;11.80;99.90;;;;;;5070649;28;20203;-65
2023/01/14 11:42:21;;;;;;;0.63;0.63;;;11.80;99.90;;;;;;5060079;28;20541;-67
2023/01/14 11:44:57;;;;;;;0.57;0.57;;;11.90;99.90;;;;;;5057929;28;20276;-64
2023/01/14 11:47:24;;;;;;;0.50;0.50;;;11.80;99.90;;;;;;5068521;28;20310;-67
2023/01/14 11:50:11;;;;;;;0.60;0.60;;;11.80;99.90;;;;;;5051157;28;20639;-72
2023/01/14 11:52:38;;;;;;;0.67;0.67;;;11.80;99.90;;;;;;5042527;28;20239;-66
2023/01/14 11:55:13;;;;;;;0.60;0.60;;;11.80;99.90;;;;;;5045283;28;20203;-66
2023/01/14 11:57:43;;;;;;;0.60;0.60;;;11.80;99.90;;;;;;5041391;28;20261;-66
2023/01/14 12:00:12;;;;;;;0.83;0.83;;;11.80;99.90;;;;;;5043141;28;20717;-66
2023/01/14 12:02:42;;;;;;;0.50;0.50;;;11.80;99.90;;;;;;5039756;28;20623;-67
2023/01/14 12:05:15;;;;;;;0.60;0.60;;;11.80;99.90;;;;;;5045418;28;20294;-66
2023/01/14 12:07:46;;;;;;;0.83;0.83;;;11.80;99.90;;;;;;5042766;28;20711;-65
2023/01/14 12:10:20;;;;;;;0.80;0.80;;;11.80;99.90;;;;;;5044728;28;20199;-66
2023/01/14 12:18:36;;;;;;;0.40;0.40;;;11.90;99.90;;;;;;5064376;28;20226;-66
2023/01/14 12:21:06;;;;;;;0.70;0.70;;;11.90;99.90;;;;;;5064488;28;20260;-65
2023/01/14 12:23:42;;;;;;;0.50;0.50;;;11.80;99.90;;;;;;5061668;28;20204;-65
2023/01/14 12:26:17;;;;;;;0.60;0.53;;;11.90;99.90;;;;;;5053322;28;20215;-66
2023/01/14 12:28:50;;;;;;;0.63;0.63;;;11.90;99.90;;;;;;5043117;28;20250;-63
2023/01/14 12:31:23;;;;;;;0.63;0.63;;;11.90;99.90;;;;;;5041987;28;20207;-63
2023/01/14 12:33:55;;;;;;;0.60;0.60;;;11.90;99.90;;;;;;5046826;28;20200;-65
2023/01/14 12:36:25;;;;;;;0.60;0.60;;;11.90;99.90;;;;;;5047066;28;20246;-64
2023/01/14 12:47:35;;;;;;;0.60;0.60;;;12.00;99.90;;;;;;5024473;28;20597;-67
2023/01/14 12:50:08;;;;;;;0.60;0.60;;;11.90;99.90;;;;;;5039559;28;20662;-66
2023/01/14 12:52:40;;;;;;;0.80;0.80;;;12.00;99.90;;;;;;5034696;28;20759;-67
2023/01/14 12:55:18;;;;;;;0.70;0.70;;;12.10;99.90;;;;;;5038616;28;20203;-65
2023/01/14 12:57:50;;;;;;;0.77;0.77;;;12.10;99.90;;;;;;5034398;28;20279;-66
2023/01/14 13:00:24;;;;;;;1.23;0.60;;;12.10;99.90;;;;;;5042341;28;20204;-65
2023/01/14 13:02:54;;;;;;;0.60;0.60;;;12.10;99.90;;;;;;5040255;28;20287;-65
2023/01/14 13:05:27;;;;;;;0.80;0.80;;;12.20;99.90;;;;;;5043986;28;20215;-66
2023/01/14 13:07:56;;;;;;;0.53;0.53;;;12.10;99.90;;;;;;5045121;28;20220;-65
2023/01/14 13:10:29;;;;;;;0.60;0.60;;;12.20;99.90;;;;;;5044176;28;20208;-66
2023/01/14 13:12:56;;;;;;;0.63;0.63;;;12.20;99.90;;;;;;5045092;28;20221;-66
2023/01/14 13:15:27;;;;;;;0.60;0.60;;;12.20;99.90;;;;;;5039560;28;20303;-65
2023/01/14 13:17:56;;;;;;;0.60;0.60;;;12.20;99.90;;;;;;5037321;28;20365;-66
2023/01/14 13:20:52;;;;;;;0.57;0.57;;;12.10;99.90;;;;;;5048497;28;20207;-68
2023/01/14 13:23:56;;;;;;;0.63;0.63;;;12.10;99.90;;;;;;5038632;28;20287;-66
2023/01/14 13:26:55;;;;;;;0.50;0.50;;;12.10;99.90;;;;;;5060147;28;20230;-66
2023/01/14 13:29:25;;;;;;;0.90;0.90;;;12.20;99.90;;;;;;5035446;28;20213;-66
2023/01/14 13:31:54;;;;;;;0.60;0.60;;;12.10;99.90;;;;;;5032355;28;20484;-66
2023/01/14 13:34:38;;;;;;;0.60;0.60;;;12.10;99.90;;;;;;5048095;28;20257;-66
2023/01/14 13:37:20;;;;;;;0.50;0.50;;;12.10;99.90;;;;;;5044511;28;20702;-68
2023/01/14 13:39:55;;;;;;;0.67;0.67;;;12.10;99.90;;;;;;5041350;28;20200;-69
2023/01/14 13:42:27;;;;;;;0.70;0.70;;;12.10;99.90;;;;;;5041605;28;20211;-65
2023/01/14 13:44:56;;;;;;;0.50;0.50;;;12.00;99.90;;;;;;5045948;28;20214;-66
2023/01/14 13:47:29;;;;;;;0.40;0.40;;;12.00;99.90;;;;;;5044593;28;20235;-66
2023/01/14 13:50:02;;;;;;;0.70;0.70;;;12.10;99.90;;;;;;5045471;28;20290;-66
2023/01/14 13:52:31;;;;;;;0.60;0.60;;;12.10;99.90;;;;;;5046142;28;20579;-64